createdAt,value
2022-09-11T00:01:27.308Z,99763.13
2022-09-11T00:03:57.745Z,99759.53
2022-09-11T00:06:30.517Z,99748.81
2022-09-11T00:09:04.209Z,99750.59
2022-09-11T00:11:43.233Z,99754.09
2022-09-11T00:14:13.991Z,99753.41
2022-09-11T00:16:45.476Z,99747.13
2022-09-11T00:19:19.387Z,99746.22
2022-09-11T00:21:47.263Z,99743.63
2022-09-11T00:24:14.369Z,99744.50
2022-09-11T00:26:42.575Z,99738.38
2022-09-11T00:29:10.319Z,99728.47
2022-09-11T00:31:37.518Z,99730.31
2022-09-11T00:34:04.493Z,99737.47
2022-09-11T00:36:31.956Z,99731.97
2022-09-11T00:38:59.855Z,99734.56
2022-09-11T00:41:40.458Z,99723.22
2022-09-11T00:44:16.879Z,99718.53
2022-09-11T00:46:55.777Z,99726.75
2022-09-11T00:49:28.397Z,99716.94
2022-09-11T00:52:12.640Z,99713.28
2022-09-11T00:55:05.285Z,99715.97
2022-09-11T00:57:39.376Z,99716.81
2022-09-11T01:00:08.685Z,99707.09
2022-09-11T01:02:38.653Z,99714.16
2022-09-11T01:05:07.406Z,99715.09
2022-09-11T01:07:36.462Z,99714.09
2022-09-11T01:10:06.593Z,99697.34
2022-09-11T01:13:04.869Z,99707.88
2022-09-11T01:16:20.125Z,99708.75
2022-09-11T01:19:24.537Z,99712.44
2022-09-11T01:22:35.732Z,99703.56
2022-09-11T01:25:36.917Z,99704.44
2022-09-11T01:28:40.106Z,99707.00
2022-09-11T01:31:12.398Z,99691.97
2022-09-11T01:33:50.929Z,99690.19
2022-09-11T01:36:28.941Z,99690.25
2022-09-11T01:39:02.375Z,99686.69
2022-09-11T01:41:50.327Z,99692.91
2022-09-11T01:44:27.799Z,99688.47
2022-09-11T01:46:55.415Z,99697.34
2022-09-11T01:49:56.142Z,99688.53
2022-09-11T01:52:29.315Z,99680.53
2022-09-11T01:55:13.533Z,99684.03
2022-09-11T01:57:53.503Z,99686.00
2022-09-11T02:00:20.437Z,99687.69
2022-09-11T02:03:30.879Z,99682.25
2022-09-11T02:06:04.749Z,99683.03
2022-09-11T02:08:50.136Z,99688.66
2022-09-11T02:11:18.197Z,99684.09
2022-09-11T02:14:13.268Z,99692.84
2022-09-11T02:16:56.301Z,99682.19
2022-09-11T02:19:29.683Z,99679.53
2022-09-11T02:21:58.525Z,99679.53
2022-09-11T02:24:27.483Z,99688.41
2022-09-11T02:27:12.711Z,99683.97
2022-09-11T02:29:39.691Z,99680.41
2022-09-11T02:32:07.159Z,99683.91
2022-09-11T02:34:39.153Z,99685.69
2022-09-11T02:37:25.526Z,99680.34
2022-09-11T02:40:12.319Z,99672.47
2022-09-11T02:43:39.561Z,99681.31
2022-09-11T02:46:29.973Z,99675.97
2022-09-11T02:49:09.131Z,99678.66
2022-09-11T02:52:00.355Z,99673.31
2022-09-11T02:54:50.612Z,99674.25
2022-09-11T02:57:43.368Z,99672.38
2022-09-11T03:00:11.964Z,99669.13
2022-09-11T03:02:43.080Z,99670.72
2022-09-11T03:05:11.368Z,99671.47
2022-09-11T03:07:39.180Z,99661.75
2022-09-11T03:10:08.458Z,99660.06
2022-09-11T03:12:36.652Z,99661.72
2022-09-11T03:15:04.504Z,99656.50
2022-09-11T03:17:32.197Z,99655.63
2022-09-11T03:19:59.192Z,99658.22
2022-09-11T03:22:26.219Z,99655.50
2022-09-11T03:24:53.193Z,99650.16
2022-09-11T03:27:21.590Z,99658.03
2022-09-11T03:29:48.751Z,99650.16
2022-09-11T03:32:16.236Z,99646.75
2022-09-11T03:34:43.198Z,99656.38
2022-09-11T03:37:10.128Z,99650.16
2022-09-11T03:39:37.065Z,99654.44
2022-09-11T03:42:04.222Z,99650.16
2022-09-11T03:44:31.127Z,99652.91
2022-09-11T03:46:58.052Z,99648.34
2022-09-11T03:49:24.975Z,99652.72
2022-09-11T03:51:51.913Z,99654.56
2022-09-11T03:54:18.967Z,99656.31
2022-09-11T03:56:45.910Z,99645.63
2022-09-11T03:59:13.184Z,99652.78
2022-09-11T04:01:40.219Z,99656.31
2022-09-11T04:04:07.204Z,99650.16
2022-09-11T04:06:34.099Z,99653.78
2022-09-11T04:09:01.403Z,99648.34
2022-09-11T04:11:28.504Z,99647.41
2022-09-11T04:13:55.454Z,99651.88
2022-09-11T04:16:22.418Z,99655.38
2022-09-11T04:18:49.613Z,99636.81
2022-09-11T04:21:18.942Z,99656.22
2022-09-11T04:23:50.481Z,99645.56
2022-09-11T04:26:21.230Z,99640.34
2022-09-11T04:28:48.416Z,99646.50
2022-09-11T04:31:18.574Z,99648.28
2022-09-11T04:33:46.044Z,99651.81
2022-09-11T04:36:19.102Z,99652.72
2022-09-11T04:38:47.998Z,99647.38
2022-09-11T04:41:16.618Z,99645.78
2022-09-11T04:43:43.767Z,99640.34
2022-09-11T04:46:17.802Z,99643.84
2022-09-11T04:48:49.523Z,99638.63
2022-09-11T04:51:30.195Z,99634.19
2022-09-11T04:53:59.414Z,99634.06
2022-09-11T04:56:29.939Z,99640.47
2022-09-11T04:59:03.626Z,99635.97
2022-09-11T05:01:32.763Z,99632.34
2022-09-11T05:04:01.697Z,99635.84
2022-09-11T05:06:30.478Z,99635.00
2022-09-11T05:09:03.586Z,99633.19
2022-09-11T05:11:30.854Z,99628.03
2022-09-11T05:13:59.065Z,99627.03
2022-09-11T05:16:28.630Z,99629.03
2022-09-11T05:18:56.908Z,99629.03
2022-09-11T05:21:26.205Z,99626.38
2022-09-11T05:23:57.961Z,99616.56
2022-09-11T05:26:29.826Z,99621.13
2022-09-11T05:29:11.629Z,99620.22
2022-09-11T05:31:38.763Z,99628.16
2022-09-11T05:34:06.922Z,99625.56
2022-09-11T05:36:35.562Z,99622.91
2022-09-11T05:39:04.055Z,99630.06
2022-09-11T05:41:30.972Z,99632.59
2022-09-11T05:43:59.080Z,99624.03
2022-09-11T05:46:26.099Z,99623.09
2022-09-11T05:48:53.627Z,99631.06
2022-09-11T05:51:22.239Z,99630.94
2022-09-11T05:53:54.497Z,99637.03
2022-09-11T05:56:24.391Z,99623.84
2022-09-11T05:58:51.974Z,99625.63
2022-09-11T06:01:22.108Z,99629.28
2022-09-11T06:03:50.165Z,99631.81
2022-09-11T06:06:19.394Z,99637.09
2022-09-11T06:08:47.443Z,99633.66
2022-09-11T06:11:17.444Z,99637.97
2022-09-11T06:13:46.565Z,99635.28
2022-09-11T06:16:20.737Z,99623.00
2022-09-11T06:18:49.531Z,99638.03
2022-09-11T06:21:20.379Z,99635.22
2022-09-11T06:23:49.682Z,99640.53
2022-09-11T06:26:24.296Z,99631.81
2022-09-11T06:28:52.274Z,99642.41
2022-09-11T06:31:24.410Z,99634.44
2022-09-11T06:33:51.526Z,99637.22
2022-09-11T06:36:30.119Z,99638.06
2022-09-11T06:38:58.648Z,99645.16
2022-09-11T06:41:27.590Z,99637.22
2022-09-11T06:43:54.830Z,99650.41
2022-09-11T06:46:24.692Z,99635.44
2022-09-11T06:48:52.271Z,99641.59
2022-09-11T06:51:21.912Z,99637.25
2022-09-11T06:53:49.324Z,99635.59
2022-09-11T06:56:18.682Z,99638.25
2022-09-11T06:58:46.686Z,99640.91
2022-09-11T07:01:19.060Z,99643.56
2022-09-11T07:03:49.296Z,99633.00
2022-09-11T07:06:23.492Z,99644.47
2022-09-11T07:08:53.001Z,99639.97
2022-09-11T07:11:20.931Z,99640.03
2022-09-11T07:13:48.266Z,99640.78
2022-09-11T07:16:16.495Z,99639.94
2022-09-11T07:18:46.356Z,99637.38
2022-09-11T07:21:22.240Z,99632.97
2022-09-11T07:23:52.962Z,99629.47
2022-09-11T07:26:20.959Z,99632.19
2022-09-11T07:28:52.784Z,99634.84
2022-09-11T07:31:23.902Z,99630.47
2022-09-11T07:33:52.485Z,99634.84
2022-09-11T07:36:23.125Z,99631.41
2022-09-11T07:38:51.535Z,99631.34
2022-09-11T07:41:22.126Z,99626.19
2022-09-11T07:43:58.101Z,99626.34
2022-09-11T07:46:26.761Z,99630.84
2022-09-11T07:48:55.714Z,99636.06
2022-09-11T07:51:23.118Z,99631.66
2022-09-11T07:53:52.311Z,99635.16
2022-09-11T07:56:23.980Z,99635.06
2022-09-11T07:58:52.954Z,99639.38
2022-09-11T08:01:26.779Z,99638.50
2022-09-11T08:04:00.472Z,99642.97
2022-09-11T08:06:31.603Z,99641.22
2022-09-11T08:09:02.071Z,99630.47
2022-09-11T08:11:31.879Z,99633.16
2022-09-11T08:13:58.886Z,99633.94
2022-09-11T08:16:27.859Z,99636.59
2022-09-11T08:18:55.753Z,99636.53
2022-09-11T08:21:24.489Z,99631.22
2022-09-11T08:23:51.413Z,99638.41
2022-09-11T08:26:30.977Z,99625.16
2022-09-11T08:29:00.051Z,99641.00
2022-09-11T08:31:28.310Z,99636.50
2022-09-11T08:33:56.568Z,99638.25
2022-09-11T08:36:24.424Z,99639.13
2022-09-11T08:38:52.747Z,99638.31
2022-09-11T08:41:48.239Z,99642.78
2022-09-11T08:44:31.086Z,99645.41
2022-09-11T08:47:08.620Z,99640.84
2022-09-11T08:49:43.434Z,99632.78
2022-09-11T08:52:14.810Z,99650.63
2022-09-11T08:54:43.705Z,99655.81
2022-09-11T08:57:54.644Z,99653.91
2022-09-11T09:00:40.561Z,99659.34
2022-09-11T09:03:36.378Z,99655.75
2022-09-11T09:06:40.046Z,99662.91
2022-09-11T09:09:23.825Z,99656.31
2022-09-11T09:12:17.571Z,99660.47
2022-09-11T09:15:33.300Z,99662.13
2022-09-11T09:18:32.931Z,99663.13
2022-09-11T09:21:45.297Z,99669.41
2022-09-11T09:24:21.961Z,99666.03
2022-09-11T09:26:53.416Z,99672.19
2022-09-11T09:29:23.599Z,99667.94
2022-09-11T09:32:06.495Z,99676.53
2022-09-11T09:34:39.560Z,99671.44
2022-09-11T09:37:22.835Z,99670.41
2022-09-11T09:39:51.211Z,99673.97
2022-09-11T09:42:36.291Z,99684.94
2022-09-11T09:46:01.160Z,99676.03
2022-09-11T09:48:33.662Z,99676.81
2022-09-11T09:51:03.275Z,99670.66
2022-09-11T09:53:42.232Z,99667.22
2022-09-11T09:56:16.376Z,99671.72
2022-09-11T09:59:19.884Z,99667.28
2022-09-11T10:01:52.634Z,99665.78
2022-09-11T10:04:28.183Z,99669.41
2022-09-11T10:07:14.267Z,99662.53
2022-09-11T10:09:54.709Z,99667.22
2022-09-11T10:12:28.469Z,99661.91
2022-09-11T10:15:03.166Z,99673.53
2022-09-11T10:17:30.362Z,99663.84
2022-09-11T10:20:23.483Z,99672.72
2022-09-11T10:22:52.166Z,99663.84
2022-09-11T10:25:29.985Z,99659.44
2022-09-11T10:28:11.383Z,99666.44
2022-09-11T10:30:42.321Z,99656.97
2022-09-11T10:33:38.424Z,99658.78
2022-09-11T10:36:09.968Z,99648.09
2022-09-11T10:38:48.211Z,99660.69
2022-09-11T10:41:28.469Z,99653.63
2022-09-11T10:44:12.174Z,99652.81
2022-09-11T10:46:42.770Z,99648.50
2022-09-11T10:49:19.473Z,99654.91
2022-09-11T10:52:19.834Z,99649.75
2022-09-11T10:55:15.300Z,99636.53
2022-09-11T10:57:58.823Z,99638.25
2022-09-11T11:00:30.605Z,99631.28
2022-09-11T11:03:24.992Z,99644.59
2022-09-11T11:06:37.198Z,99635.69
2022-09-11T11:09:08.485Z,99641.06
2022-09-11T11:12:21.141Z,99640.13
2022-09-11T11:15:30.183Z,99631.31
2022-09-11T11:18:21.902Z,99637.47
2022-09-11T11:21:28.548Z,99635.69
2022-09-11T11:24:13.545Z,99633.97
2022-09-11T11:27:13.135Z,99625.97
2022-09-11T11:30:22.549Z,99631.31
2022-09-11T11:33:33.002Z,99633.97
2022-09-11T11:36:09.079Z,99630.44
2022-09-11T11:39:02.800Z,99624.19
2022-09-11T11:41:39.396Z,99625.97
2022-09-11T11:44:12.265Z,99626.84
2022-09-11T11:46:48.843Z,99624.19
2022-09-11T11:49:27.119Z,99632.13
2022-09-11T11:52:33.909Z,99627.69
2022-09-11T11:55:18.618Z,99626.81
2022-09-11T11:58:34.616Z,99628.47
2022-09-11T12:01:09.115Z,99631.19
2022-09-11T12:04:12.425Z,99624.09
2022-09-11T12:06:39.359Z,99624.81
2022-09-11T12:09:10.948Z,99624.88
2022-09-11T12:11:39.205Z,99616.94
2022-09-11T12:14:07.425Z,99620.47
2022-09-11T12:16:35.759Z,99623.97
2022-09-11T12:19:22.690Z,99614.84
2022-09-11T12:21:52.522Z,99622.75
2022-09-11T12:24:52.507Z,99622.66
2022-09-11T12:27:49.339Z,99624.63
2022-09-11T12:30:20.349Z,99622.78
2022-09-11T12:33:02.357Z,99617.34
2022-09-11T12:35:49.282Z,99621.09
2022-09-11T12:38:31.584Z,99622.78
2022-09-11T12:41:14.091Z,99615.50
2022-09-11T12:43:41.451Z,99623.47
2022-09-11T12:46:20.669Z,99616.25
2022-09-11T12:49:18.018Z,99611.34
2022-09-11T12:51:50.092Z,99611.59
2022-09-11T12:54:39.553Z,99608.38
2022-09-11T12:57:21.978Z,99605.41
2022-09-11T12:59:59.415Z,99605.75
2022-09-11T13:02:51.512Z,99608.44
2022-09-11T13:05:34.661Z,99598.09
2022-09-11T13:08:22.316Z,99601.84
2022-09-11T13:10:49.571Z,99604.88
2022-09-11T13:13:40.498Z,99612.34
2022-09-11T13:16:44.863Z,99614.19
2022-09-11T13:19:17.091Z,99608.69
2022-09-11T13:21:45.881Z,99613.09
2022-09-11T13:24:23.490Z,99610.59
2022-09-11T13:26:55.299Z,99605.41
2022-09-11T13:29:29.169Z,99610.41
2022-09-11T13:31:59.596Z,99612.19
2022-09-11T13:34:29.450Z,99618.59
2022-09-11T13:36:57.858Z,99617.78
2022-09-11T13:39:27.383Z,99619.31
2022-09-11T13:42:05.076Z,99620.97
2022-09-11T13:44:58.172Z,99612.94
2022-09-11T13:47:28.372Z,99605.03
2022-09-11T13:50:02.467Z,99614.56
2022-09-11T13:52:34.309Z,99610.03
2022-09-11T13:55:10.465Z,99624.44
2022-09-11T13:58:01.745Z,99619.22
2022-09-11T14:00:48.663Z,99615.78
2022-09-11T14:03:29.022Z,99624.50
2022-09-11T14:05:59.717Z,99627.59
2022-09-11T14:08:37.857Z,99613.59
2022-09-11T14:11:15.326Z,99623.38
2022-09-11T14:14:07.432Z,99619.81
2022-09-11T14:16:46.667Z,99627.81
2022-09-11T14:19:20.837Z,99621.78
2022-09-11T14:21:50.641Z,99619.94
2022-09-11T14:24:32.771Z,99627.06
2022-09-11T14:27:02.336Z,99622.59
2022-09-11T14:29:33.194Z,99620.72
2022-09-11T14:32:39.102Z,99610.28
2022-09-11T14:35:10.196Z,99616.47
2022-09-11T14:37:45.777Z,99623.72
2022-09-11T14:40:19.882Z,99624.59
2022-09-11T14:42:47.811Z,99629.13
2022-09-11T14:45:25.939Z,99621.19
2022-09-11T14:47:53.483Z,99624.63
2022-09-11T14:50:21.226Z,99616.75
2022-09-11T14:52:48.151Z,99623.72
2022-09-11T14:55:17.661Z,99629.88
2022-09-11T14:57:46.599Z,99626.38
2022-09-11T15:00:18.883Z,99617.38
2022-09-11T15:02:46.507Z,99627.25
2022-09-11T15:05:16.906Z,99628.31
2022-09-11T15:07:46.917Z,99626.44
2022-09-11T15:10:15.174Z,99624.78
2022-09-11T15:12:42.822Z,99637.22
2022-09-11T15:15:10.357Z,99634.56
2022-09-11T15:17:37.298Z,99639.06
2022-09-11T15:20:07.307Z,99639.97
2022-09-11T15:22:35.224Z,99644.50
2022-09-11T15:25:03.606Z,99648.94
2022-09-11T15:27:31.409Z,99650.69
2022-09-11T15:29:58.385Z,99655.16
2022-09-11T15:32:25.397Z,99653.44
2022-09-11T15:34:53.058Z,99667.63
2022-09-11T15:37:19.965Z,99664.97
2022-09-11T15:39:46.901Z,99654.31
2022-09-11T15:42:13.857Z,99674.78
2022-09-11T15:44:40.957Z,99674.78
2022-09-11T15:47:07.921Z,99672.97
2022-09-11T15:49:44.533Z,99682.78
2022-09-11T15:52:12.120Z,99676.56
2022-09-11T15:54:39.103Z,99687.22
2022-09-11T15:57:07.603Z,99685.44
2022-09-11T15:59:34.582Z,99682.75
2022-09-11T16:02:01.716Z,99690.75
2022-09-11T16:04:32.293Z,99692.53
2022-09-11T16:06:59.880Z,99688.06
2022-09-11T16:09:30.073Z,99688.97
2022-09-11T16:11:57.644Z,99689.00
2022-09-11T16:14:27.889Z,99689.81
2022-09-11T16:16:56.693Z,99691.59
2022-09-11T16:19:28.888Z,99689.78
2022-09-11T16:21:58.241Z,99706.69
2022-09-11T16:24:27.234Z,99700.44
2022-09-11T16:26:56.105Z,99706.63
2022-09-11T16:29:51.093Z,99708.38
2022-09-11T16:32:28.288Z,99718.19
2022-09-11T16:34:57.955Z,99719.03
2022-09-11T16:37:26.061Z,99713.75
2022-09-11T16:39:53.179Z,99713.69
2022-09-11T16:42:21.259Z,99722.50
2022-09-11T16:44:49.801Z,99715.44
2022-09-11T16:47:17.907Z,99713.69
2022-09-11T16:52:32.644Z,99722.41
2022-09-11T16:54:59.742Z,99725.13
2022-09-11T16:57:30.093Z,99738.31
2022-09-11T16:59:57.077Z,99733.00
2022-09-11T17:02:24.074Z,99742.69
2022-09-11T17:04:51.082Z,99738.94
2022-09-11T17:07:18.591Z,99739.78
2022-09-11T17:09:48.723Z,99746.00
2022-09-11T17:12:17.914Z,99752.19
2022-09-11T17:14:44.980Z,99756.53
2022-09-11T17:17:11.950Z,99757.50
2022-09-11T17:19:39.049Z,99764.47
2022-09-11T17:22:08.377Z,99764.25
2022-09-11T17:24:35.387Z,99771.06
2022-09-11T17:27:02.753Z,99771.94
2022-09-11T17:29:29.700Z,99766.63
2022-09-11T17:32:16.865Z,99778.06
2022-09-11T17:34:43.542Z,99774.63
2022-09-11T17:37:10.536Z,99778.94
2022-09-11T17:39:37.515Z,99775.41
2022-09-11T17:42:11.004Z,99776.97
2022-09-11T17:44:41.415Z,99771.06
2022-09-11T17:47:08.747Z,99763.81
2022-09-11T17:49:37.479Z,99762.03
2022-09-11T17:52:04.460Z,99767.34
2022-09-11T17:54:31.482Z,99770.00
2022-09-11T17:56:59.131Z,99770.81
2022-09-11T17:59:26.084Z,99765.44
2022-09-11T18:01:53.369Z,99772.66
2022-09-11T18:04:20.409Z,99769.22
2022-09-11T18:06:47.490Z,99770.69
2022-09-11T18:09:19.685Z,99770.00
2022-09-11T18:11:49.983Z,99767.41
2022-09-11T18:14:18.853Z,99762.94
2022-09-11T18:16:47.849Z,99775.31
2022-09-11T18:19:18.013Z,99785.09
2022-09-11T18:21:49.858Z,99792.91
2022-09-11T18:24:20.078Z,99789.31
2022-09-11T18:26:51.358Z,99789.38
2022-09-11T18:29:21.284Z,99784.94
2022-09-11T18:31:53.370Z,99778.88
2022-09-11T18:34:26.518Z,99776.38
2022-09-11T18:36:54.066Z,99774.38
2022-09-11T18:39:21.748Z,99769.94
2022-09-11T18:41:50.346Z,99765.50
2022-09-11T18:44:20.519Z,99768.25
2022-09-11T18:46:48.508Z,99765.59
2022-09-11T18:49:16.533Z,99762.91
2022-09-11T18:51:43.964Z,99770.00
2022-09-11T18:54:17.418Z,99773.50
2022-09-11T18:56:45.521Z,99781.56
2022-09-11T18:59:13.562Z,99782.44
2022-09-11T19:01:41.279Z,99777.09
2022-09-11T19:04:14.156Z,99781.53
2022-09-11T19:06:41.215Z,99782.44
2022-09-11T19:09:12.464Z,99778.00
2022-09-11T19:11:40.419Z,99768.19
2022-09-11T19:14:10.850Z,99783.25
2022-09-11T19:16:39.223Z,99778.81
2022-09-11T19:19:07.575Z,99785.09
2022-09-11T19:21:36.210Z,99774.44
2022-09-11T19:24:03.309Z,99779.69
2022-09-11T19:26:38.989Z,99782.28
2022-09-11T19:29:08.740Z,99777.09
2022-09-11T19:31:37.257Z,99776.19
2022-09-11T19:34:04.286Z,99775.47
2022-09-11T19:36:35.340Z,99784.28
2022-09-11T19:39:03.526Z,99794.72
2022-09-11T19:41:34.165Z,99785.03
2022-09-11T19:44:03.277Z,99782.44
2022-09-11T19:46:32.977Z,99782.41
2022-09-11T19:49:03.191Z,99779.69
2022-09-11T19:51:33.241Z,99777.03
2022-09-11T19:54:02.768Z,99780.81
2022-09-11T19:56:31.560Z,99783.41
2022-09-11T19:58:59.833Z,99779.75
2022-09-11T20:01:29.549Z,99775.31
2022-09-11T20:03:58.227Z,99776.22
2022-09-11T20:06:33.292Z,99780.66
2022-09-11T20:09:29.759Z,99774.44
2022-09-11T20:11:48.448Z,99783.31
2022-09-11T20:14:15.560Z,99774.50
2022-09-11T20:16:42.592Z,99770.97
2022-09-11T20:19:10.480Z,99771.84
2022-09-11T20:21:37.944Z,99780.75
2022-09-11T20:24:07.313Z,99772.81
2022-09-11T20:26:35.479Z,99766.63
2022-09-11T20:29:11.847Z,99772.75
2022-09-11T20:31:46.934Z,99781.63
2022-09-11T20:34:16.141Z,99779.91
2022-09-11T20:36:43.097Z,99776.38
2022-09-11T20:39:13.728Z,99778.34
2022-09-11T20:41:40.895Z,99783.53
2022-09-11T20:44:07.856Z,99774.69
2022-09-11T20:46:34.886Z,99776.44
2022-09-11T20:49:03.081Z,99779.91
2022-09-11T20:51:30.203Z,99779.91
2022-09-11T20:53:57.196Z,99777.38
2022-09-11T20:56:24.220Z,99773.69
2022-09-11T20:58:52.195Z,99783.53
2022-09-11T21:01:22.707Z,99779.91
2022-09-11T21:03:55.860Z,99773.78
2022-09-11T21:06:28.355Z,99774.63
2022-09-11T21:09:01.371Z,99775.41
2022-09-11T21:11:30.685Z,99785.03
2022-09-11T21:13:58.733Z,99783.31
2022-09-11T21:16:25.758Z,99787.00
2022-09-11T21:18:56.258Z,99781.59
2022-09-11T21:21:25.135Z,99785.03
2022-09-11T21:23:56.834Z,99784.22
2022-09-11T21:26:26.152Z,99785.97
2022-09-11T21:28:53.149Z,99785.03
2022-09-11T21:31:20.114Z,99792.94
2022-09-11T21:33:47.099Z,99784.88
2022-09-11T21:36:14.166Z,99798.09
2022-09-11T21:38:41.363Z,99790.06
2022-09-11T21:41:10.499Z,99791.94
2022-09-11T21:43:38.501Z,99792.75
2022-09-11T21:46:07.813Z,99793.59
2022-09-11T21:48:40.489Z,99801.59
2022-09-11T21:51:17.077Z,99788.22
2022-09-11T21:53:46.736Z,99802.38
2022-09-11T21:56:27.175Z,99799.63
2022-09-11T21:58:54.917Z,99800.47
2022-09-11T22:01:23.641Z,99792.72
2022-09-11T22:03:51.643Z,99805.00
2022-09-11T22:06:20.390Z,99809.28
2022-09-11T22:08:48.195Z,99811.94
2022-09-11T22:11:16.433Z,99807.44
2022-09-11T22:13:43.832Z,99817.22
2022-09-11T22:16:15.226Z,99811.88
2022-09-11T22:18:42.999Z,99814.41
2022-09-11T22:21:10.750Z,99804.66
2022-09-11T22:23:37.745Z,99809.88
2022-09-11T22:26:17.994Z,99816.19
2022-09-11T22:28:45.267Z,99808.13
2022-09-11T22:31:24.119Z,99814.38
2022-09-11T22:33:52.238Z,99821.22
2022-09-11T22:36:26.123Z,99818.75
2022-09-11T22:38:53.483Z,99813.41
2022-09-11T22:41:21.332Z,99815.19
2022-09-11T22:43:50.023Z,99816.03
2022-09-11T22:46:20.174Z,99804.53
2022-09-11T22:48:47.835Z,99809.75
2022-09-11T22:51:14.844Z,99816.91
2022-09-11T22:53:41.893Z,99815.19
2022-09-11T22:56:09.687Z,99814.97
2022-09-11T22:58:38.422Z,99813.13
2022-09-11T23:01:08.050Z,99815.94
2022-09-11T23:03:35.775Z,99821.13
2022-09-11T23:06:22.395Z,99813.94
2022-09-11T23:08:49.709Z,99828.19
2022-09-11T23:11:19.942Z,99822.81
2022-09-11T23:13:48.643Z,99825.38
2022-09-11T23:16:29.155Z,99823.59
2022-09-11T23:18:59.309Z,99826.28
2022-09-11T23:21:27.797Z,99818.28
2022-09-11T23:23:56.781Z,99824.47
2022-09-11T23:26:26.613Z,99821.88
2022-09-11T23:28:54.649Z,99828.09
2022-09-11T23:31:33.065Z,99826.59
2022-09-11T23:34:03.807Z,99822.88
2022-09-11T23:36:31.779Z,99827.03
2022-09-11T23:38:59.559Z,99822.59
2022-09-11T23:41:27.351Z,99824.38
2022-09-11T23:43:55.010Z,99826.22
2022-09-11T23:46:22.359Z,99817.56
2022-09-11T23:48:49.851Z,99819.13
2022-09-11T23:51:17.115Z,99822.44
2022-09-11T23:53:45.207Z,99819.94
2022-09-11T23:56:14.490Z,99831.44
2022-09-11T23:58:42.441Z,99814.53
